General Mitchell International Airport
KMKE : now visible

Airfield :











YOU CAN JOIN US ON...

 
LOGIN :

Register | Disclaimer

   EN    FR    IT 

 









Legend :    VFR   Marginal VFR   IFR   Intensive IFR   Very Intensive IFR
Visi :
Ceiling :
>= 8 km
>= 3000ft
5 to 8 km
1000 to 3000 ft
1500m to 5 km
500 to 1000 ft
800 to 1500m
200 to 500 ft
< 800m
< 200 ft
Symbols :   Thunderstorms  Fog  Heavy snow  Heavy precipitations  Wind > 20 kt






- Airport Elevation : 723 ft
- IATA code : MKE


KMKE - General Mitchell International

CURRENT METAR :
  • 071752Z 19015G21KT 10SM SCT250 23/13 A2965 RMK AO2 SLP041 60000 T02280133 10228 20083 56049

EXPIRED METARs :
  • 071652Z 18010KT 10SM FEW060 19/13 A2968 RMK AO2 SLP051 T01940128
  • 071552Z 17009KT 10SM SCT020 17/12 A2974 RMK AO2 SLP070 T01720117

TAF KMKE
Valid from the 07 at 18:00 until the 09 at 00:00 UTC


071806Z 0718/0824 19015G22KT P6SM FEW035
FM072000 22013G21KT P6SM SCT035
FM072200 27013G21KT P6SM VCTS SCT040CB
FM080100 30009KT P6SM BKN035
FM080900 33004KT 5SM BR FEW100
FM082200 28011G21KT 6SM -SHRA BR OVC040



MET'MAP, your aeronautical weather chart ! - Copyright ORBIFLY December 2007 - Disclaimer

ORBIFLY MET'MAP TEAM :

Programming & Development : Alexandra Zaïnal
Concept & original design : Baudouin d'Aumeries
Assistance for programming : Marc-Olivier Méhu
Technical & hardware support : Manuel Goepfert

Contact : metmap@orbifly.com




SOURCES & CREDITS :

   NOAA       Earth
Advisory